Terminal Aerodrome Forecast
Issued by NWS

Home | Current Version | Previous Version | Graphics & Text | Print | Product List | Glossary On
Versions: 1 2 3 4 5 6 7 8 9 10 11 12 13 14 15 16 17 18 19 20 21 22 23 24 25 26 27
049
FTUS43 KGRB 232320
TAFAUW
TAF
KAUW 232320Z 2400/2424 27012G18KT P6SM BKN020
      TEMPO 2400/2402 BKN016
     FM240200 28007KT P6SM BKN020
      TEMPO 2402/2406 SCT020
     FM240600 29006KT P6SM SCT020
     FM240800 VRB03KT 3SM BR FEW015
      TEMPO 2408/2412 1SM BR SCT006
     FM241400 05004KT P6SM SKC
     FM241800 09008KT P6SM BKN080
     FM242100 10010G19KT P6SM OVC030=

USA.gov is the U.S. government's official web portal to all federal, state and local government web resources and services.